Time;durP1;ratioP1;P1;durP2;ratioP2;P2;SDS_P1;SDS_P2;PMS_P1;PMS_P2;Temp;Humidity;BMP_temperature;BMP_pressure;BME280_temperature;BME280_humidity;BME280_pressure;Samples;Min_cycle;Max_cycle;Signal;HPM_P1;HPM_P2
2023/03/06 00:00:54;;;;;;;3.10;1.20;;;3.50;99.90;;;;;;5055133;28;20131;-79
2023/03/06 00:03:21;;;;;;;14.27;1.40;;;3.10;99.90;;;;;;5081400;28;20048;-79
2023/03/06 00:05:48;;;;;;;5.40;1.30;;;3.10;99.90;;;;;;5051177;28;20037;-79
2023/03/06 00:08:14;;;;;;;6.22;1.23;;;3.20;99.90;;;;;;5051126;28;20886;-79
2023/03/06 00:10:41;;;;;;;6.47;1.33;;;3.30;99.90;;;;;;5051145;28;20037;-79
2023/03/06 00:13:12;;;;;;;3.25;1.30;;;3.00;99.90;;;;;;5051136;28;20037;-79
2023/03/06 00:15:39;;;;;;;4.20;1.30;;;3.30;99.90;;;;;;5067210;28;20371;-79
2023/03/06 00:18:06;;;;;;;3.35;1.27;;;3.00;99.90;;;;;;5034852;28;20111;-78
2023/03/06 00:20:34;;;;;;;4.53;1.00;;;3.00;99.90;;;;;;5067063;28;20056;-79
2023/03/06 00:23:01;;;;;;;3.97;0.90;;;3.00;99.90;;;;;;5050972;28;20414;-79
2023/03/06 00:25:28;;;;;;;1.50;0.80;;;3.00;99.90;;;;;;5034283;28;20084;-78
2023/03/06 00:27:55;;;;;;;3.75;0.90;;;2.90;99.90;;;;;;5053244;28;20045;-78
2023/03/06 00:30:23;;;;;;;2.40;0.70;;;2.90;99.90;;;;;;5070462;28;20088;-79
2023/03/06 00:32:51;;;;;;;2.03;1.00;;;2.80;99.90;;;;;;5070613;28;20489;-79
2023/03/06 00:35:18;;;;;;;2.63;0.70;;;2.70;99.90;;;;;;5070860;28;20108;-79
2023/03/06 00:37:45;;;;;;;3.30;0.95;;;2.70;99.90;;;;;;5087164;28;20072;-79
2023/03/06 00:40:14;;;;;;;1.00;0.60;;;2.70;99.90;;;;;;5053955;28;20135;-79
2023/03/06 00:42:41;;;;;;;2.35;0.93;;;2.50;99.90;;;;;;5070273;28;20052;-79
2023/03/06 00:45:08;;;;;;;1.40;0.70;;;2.40;99.90;;;;;;5070365;28;20493;-79
2023/03/06 00:47:35;;;;;;;0.85;0.60;;;2.10;99.90;;;;;;5085695;28;20048;-79
2023/03/06 00:50:03;;;;;;;1.65;0.70;;;2.40;99.90;;;;;;5070443;28;20036;-79
2023/03/06 00:52:30;;;;;;;1.70;0.50;;;1.90;99.90;;;;;;5072617;28;20033;-80
2023/03/06 00:54:56;;;;;;;4.32;0.70;;;1.90;99.90;;;;;;5077137;28;20051;-79
2023/03/06 00:57:24;;;;;;;1.17;0.80;;;1.70;99.90;;;;;;5073699;28;20119;-79
2023/03/06 00:59:50;;;;;;;1.35;0.63;;;1.50;99.90;;;;;;5110296;28;20043;-79
2023/03/06 01:02:17;;;;;;;1.38;0.70;;;1.40;99.90;;;;;;5076798;28;20097;-79
2023/03/06 01:04:44;;;;;;;2.83;0.70;;;2.20;99.90;;;;;;5093404;28;20441;-80
2023/03/06 01:07:11;;;;;;;1.95;0.68;;;2.10;99.90;;;;;;5077023;28;20050;-80
2023/03/06 01:09:37;;;;;;;2.88;0.60;;;1.40;99.90;;;;;;5074433;28;20042;-80
2023/03/06 01:12:04;;;;;;;1.70;0.60;;;1.20;99.90;;;;;;5063756;28;20040;-80
2023/03/06 01:14:31;;;;;;;1.13;0.47;;;1.20;99.90;;;;;;5076955;28;20137;-80
2023/03/06 01:16:58;;;;;;;1.60;0.73;;;1.20;99.90;;;;;;5093291;28;20038;-80
2023/03/06 01:19:25;;;;;;;1.05;0.60;;;1.10;99.90;;;;;;5076813;28;20044;-79
2023/03/06 01:21:51;;;;;;;0.63;0.60;;;1.00;99.90;;;;;;5093021;28;20062;-79
2023/03/06 01:24:18;;;;;;;0.88;0.50;;;1.10;99.90;;;;;;5058888;28;20512;-79
2023/03/06 01:26:47;;;;;;;1.98;0.40;;;1.10;99.90;;;;;;5040066;28;20123;-79
2023/03/06 01:29:14;;;;;;;1.23;0.60;;;1.10;99.90;;;;;;5073092;28;20430;-79
2023/03/06 01:31:40;;;;;;;0.57;0.50;;;1.10;99.90;;;;;;5039888;28;20036;-79
2023/03/06 01:34:07;;;;;;;0.60;0.50;;;1.10;99.90;;;;;;5085095;28;20037;-79
2023/03/06 01:36:34;;;;;;;0.52;0.50;;;1.10;99.90;;;;;;5056328;28;20040;-79
2023/03/06 01:39:00;;;;;;;0.63;0.57;;;1.60;99.90;;;;;;5089416;28;20052;-79
2023/03/06 01:41:27;;;;;;;0.85;0.63;;;1.00;99.90;;;;;;5056630;28;20136;-79
2023/03/06 01:43:54;;;;;;;0.40;0.40;;;1.60;99.90;;;;;;5056024;28;20143;-79
2023/03/06 01:46:24;;;;;;;1.08;0.50;;;1.60;99.90;;;;;;5072706;28;20037;-80
2023/03/06 01:49:01;;;;;;;0.80;0.40;;;1.10;99.90;;;;;;5089181;28;20079;-80
2023/03/06 01:52:08;;;;;;;1.40;0.70;;;1.00;99.90;;;;;;5089080;28;20037;-80
2023/03/06 01:54:58;;;;;;;1.27;0.68;;;1.00;99.90;;;;;;4963327;29;20051;-80
2023/03/06 01:57:28;;;;;;;1.10;0.60;;;1.20;99.90;;;;;;4969971;29;20411;-80
2023/03/06 02:00:07;;;;;;;0.82;0.50;;;1.00;99.90;;;;;;5046081;28;20056;-80
2023/03/06 02:02:34;;;;;;;2.65;0.80;;;1.00;99.90;;;;;;5069110;28;20435;-79
2023/03/06 02:05:02;;;;;;;1.58;0.65;;;1.00;99.90;;;;;;5085396;28;20174;-80
2023/03/06 02:07:30;;;;;;;1.25;0.60;;;0.90;99.90;;;;;;5082427;28;20051;-79
2023/03/06 02:09:57;;;;;;;1.63;0.73;;;1.10;99.90;;;;;;5069107;28;20439;-80
2023/03/06 02:12:25;;;;;;;0.45;0.43;;;1.20;99.90;;;;;;5052591;28;20090;-79
2023/03/06 02:14:52;;;;;;;1.67;0.70;;;1.00;99.90;;;;;;5052376;28;20501;-80
2023/03/06 02:17:22;;;;;;;1.55;0.70;;;1.70;99.90;;;;;;5052696;28;20044;-80
2023/03/06 02:20:01;;;;;;;1.20;0.60;;;0.90;99.90;;;;;;5085604;28;20045;-79
2023/03/06 02:23:00;;;;;;;0.57;0.40;;;0.90;99.90;;;;;;5085669;28;20045;-80
2023/03/06 02:25:41;;;;;;;0.55;0.50;;;1.10;99.90;;;;;;5068390;28;20056;-79
2023/03/06 02:28:11;;;;;;;1.02;0.65;;;0.80;99.90;;;;;;5069169;28;20043;-79
2023/03/06 02:30:38;;;;;;;1.77;0.80;;;0.90;99.90;;;;;;5101320;28;20074;-79
2023/03/06 02:33:05;;;;;;;3.92;0.80;;;0.90;99.90;;;;;;5088796;28;20052;-79
2023/03/06 02:35:34;;;;;;;2.42;0.75;;;0.90;99.90;;;;;;5089220;28;20424;-80
2023/03/06 02:38:12;;;;;;;1.33;0.63;;;0.90;99.90;;;;;;5105147;28;20040;-80
2023/03/06 02:40:42;;;;;;;4.30;1.20;;;1.70;99.90;;;;;;5104969;28;20044;-80
2023/03/06 02:43:11;;;;;;;1.80;0.95;;;0.90;99.90;;;;;;5088655;28;20040;-80
2023/03/06 02:45:43;;;;;;;1.40;0.82;;;1.60;99.90;;;;;;5088359;28;20076;-80
2023/03/06 02:48:15;;;;;;;1.13;0.80;;;1.40;99.90;;;;;;5088746;28;20048;-79
2023/03/06 02:50:43;;;;;;;2.58;1.00;;;1.40;99.90;;;;;;5105445;28;20061;-79
2023/03/06 02:53:13;;;;;;;1.27;0.80;;;1.50;99.90;;;;;;5051036;28;20099;-79
2023/03/06 02:55:40;;;;;;;1.35;0.70;;;0.90;99.90;;;;;;5052322;28;20059;-79
2023/03/06 02:58:08;;;;;;;0.73;0.50;;;1.30;99.90;;;;;;5068720;28;20037;-80
2023/03/06 03:00:35;;;;;;;1.65;0.88;;;1.00;99.90;;;;;;5078276;28;20103;-80
2023/03/06 03:03:02;;;;;;;1.75;0.80;;;0.90;99.90;;;;;;5048365;28;20045;-79
2023/03/06 03:05:28;;;;;;;0.85;0.60;;;0.90;99.90;;;;;;5048437;28;20091;-79
2023/03/06 03:07:55;;;;;;;0.98;0.60;;;0.90;99.90;;;;;;5015954;28;20045;-79
2023/03/06 03:10:22;;;;;;;0.77;0.50;;;0.90;99.90;;;;;;5048946;28;20037;-80
2023/03/06 03:12:49;;;;;;;0.60;0.40;;;0.90;99.90;;;;;;5035979;28;20042;-80
2023/03/06 03:15:16;;;;;;;1.52;0.45;;;0.90;99.90;;;;;;5036008;28;20037;-79
2023/03/06 03:17:43;;;;;;;1.45;0.60;;;0.90;99.90;;;;;;5019768;28;20045;-79
2023/03/06 03:20:13;;;;;;;1.20;0.50;;;1.00;99.90;;;;;;5051901;28;20050;-79
2023/03/06 03:22:40;;;;;;;1.42;0.70;;;0.90;99.90;;;;;;5068726;28;20567;-79
2023/03/06 03:25:07;;;;;;;0.40;0.40;;;1.50;99.90;;;;;;5035411;28;20128;-79
2023/03/06 03:27:34;;;;;;;0.77;0.40;;;0.90;99.90;;;;;;5051834;28;20437;-79
2023/03/06 03:30:01;;;;;;;0.80;0.52;;;1.60;99.90;;;;;;5051466;28;20045;-79
2023/03/06 03:32:28;;;;;;;6.85;0.80;;;1.00;99.90;;;;;;5052406;28;20030;-79
2023/03/06 03:34:55;;;;;;;0.50;0.30;;;1.50;99.90;;;;;;5054958;28;20118;-79
2023/03/06 03:37:22;;;;;;;2.42;0.68;;;1.70;99.90;;;;;;5071623;28;20116;-79
2023/03/06 03:39:48;;;;;;;0.73;0.43;;;1.40;99.90;;;;;;5055426;28;20037;-79
2023/03/06 03:42:15;;;;;;;0.55;0.40;;;0.90;99.90;;;;;;5055084;28;20045;-79
2023/03/06 03:44:42;;;;;;;1.67;0.70;;;0.90;99.90;;;;;;5062702;28;20037;-79
2023/03/06 03:47:09;;;;;;;1.02;0.47;;;0.90;99.90;;;;;;5051274;28;20041;-79
2023/03/06 03:49:36;;;;;;;0.88;0.60;;;1.30;99.90;;;;;;5019072;28;20041;-79
2023/03/06 03:52:02;;;;;;;0.98;0.60;;;0.90;99.90;;;;;;5018948;28;20041;-79
2023/03/06 03:54:29;;;;;;;1.55;0.70;;;0.90;99.90;;;;;;5020019;28;20128;-79
2023/03/06 03:56:56;;;;;;;0.68;0.38;;;0.90;99.90;;;;;;5034696;28;20076;-79
2023/03/06 03:59:23;;;;;;;0.98;0.50;;;0.90;99.90;;;;;;5035308;28;20073;-79
2023/03/06 04:01:50;;;;;;;0.88;0.60;;;0.90;99.90;;;;;;5067805;28;20113;-79
2023/03/06 04:04:17;;;;;;;0.63;0.40;;;0.90;99.90;;;;;;5035291;28;20058;-79
2023/03/06 04:06:44;;;;;;;9.32;0.73;;;1.20;99.90;;;;;;5034967;28;20541;-79
2023/03/06 04:09:11;;;;;;;1.42;0.50;;;0.90;99.90;;;;;;5051125;28;20124;-79
2023/03/06 04:11:37;;;;;;;0.93;0.52;;;1.00;99.90;;;;;;5035173;28;20033;-79
2023/03/06 04:14:07;;;;;;;1.38;0.60;;;0.90;99.90;;;;;;5028572;28;20037;-79
2023/03/06 04:16:33;;;;;;;1.35;0.73;;;0.90;99.90;;;;;;5032570;28;20033;-79
2023/03/06 04:19:00;;;;;;;3.90;0.73;;;1.40;99.90;;;;;;5049521;28;20042;-79
2023/03/06 04:21:27;;;;;;;3.33;1.00;;;0.80;99.90;;;;;;5045964;28;20397;-79
2023/03/06 04:23:53;;;;;;;1.20;0.68;;;0.80;99.90;;;;;;5052999;28;20040;-79
2023/03/06 04:26:20;;;;;;;1.50;0.70;;;1.70;99.90;;;;;;5063217;28;20406;-79
2023/03/06 04:28:47;;;;;;;1.77;0.70;;;0.80;99.90;;;;;;5065624;28;20083;-79
2023/03/06 04:31:13;;;;;;;1.20;0.70;;;1.20;99.90;;;;;;5054004;28;20033;-79
2023/03/06 04:33:40;;;;;;;1.35;0.70;;;1.10;99.90;;;;;;5087280;28;20040;-79
2023/03/06 04:36:14;;;;;;;1.05;0.55;;;0.80;99.90;;;;;;5053895;28;20076;-79
2023/03/06 04:38:40;;;;;;;1.95;0.70;;;0.70;99.90;;;;;;5070604;28;20047;-78
2023/03/06 04:41:07;;;;;;;1.27;0.70;;;0.90;99.90;;;;;;5057362;28;20041;-79
2023/03/06 04:43:34;;;;;;;1.67;0.70;;;1.40;99.90;;;;;;5066796;28;20442;-79
2023/03/06 04:46:00;;;;;;;1.15;0.60;;;1.00;99.90;;;;;;5086832;28;20037;-79
2023/03/06 04:48:27;;;;;;;1.75;0.80;;;0.70;99.90;;;;;;5070357;28;20083;-79
2023/03/06 04:50:54;;;;;;;2.67;0.68;;;0.70;99.90;;;;;;5070672;28;20086;-78
2023/03/06 04:53:20;;;;;;;3.70;0.60;;;0.70;99.90;;;;;;5063426;28;20095;-79
2023/03/06 04:55:47;;;;;;;1.05;0.60;;;0.70;99.90;;;;;;5077151;28;20044;-79
2023/03/06 04:58:14;;;;;;;1.15;0.63;;;0.70;99.90;;;;;;5093887;28;20487;-79
2023/03/06 05:00:40;;;;;;;1.33;0.73;;;0.70;99.90;;;;;;5093813;28;20139;-79
2023/03/06 05:03:08;;;;;;;1.75;0.60;;;1.40;99.90;;;;;;5077064;28;20512;-79
2023/03/06 05:05:34;;;;;;;3.08;0.80;;;0.80;99.90;;;;;;5076821;28;20138;-79
2023/03/06 05:08:01;;;;;;;0.75;0.50;;;1.10;99.90;;;;;;5076822;28;20152;-79
2023/03/06 05:10:28;;;;;;;3.28;0.80;;;1.30;99.90;;;;;;5076105;28;20040;-79
2023/03/06 05:12:54;;;;;;;1.52;0.70;;;0.80;99.90;;;;;;5076844;28;20132;-79
2023/03/06 05:15:22;;;;;;;1.40;0.60;;;0.90;99.90;;;;;;5092857;28;20036;-79
2023/03/06 05:17:48;;;;;;;0.85;0.47;;;0.80;99.90;;;;;;5077111;28;20506;-79
2023/03/06 05:20:16;;;;;;;1.00;0.47;;;1.40;99.90;;;;;;5076203;28;20087;-79
2023/03/06 05:22:43;;;;;;;1.05;0.70;;;1.50;99.90;;;;;;5073173;28;20044;-79
2023/03/06 05:25:10;;;;;;;3.28;0.63;;;0.70;99.90;;;;;;5089129;28;20500;-79
2023/03/06 05:27:38;;;;;;;1.38;0.68;;;0.70;99.90;;;;;;5089812;28;20037;-79
2023/03/06 05:30:05;;;;;;;1.83;0.90;;;0.70;99.90;;;;;;5089764;28;20041;-79
2023/03/06 05:32:32;;;;;;;4.65;0.52;;;0.80;99.90;;;;;;5089459;28;20040;-79
2023/03/06 05:34:59;;;;;;;0.95;0.60;;;1.30;99.90;;;;;;5072012;28;20094;-79
2023/03/06 05:37:25;;;;;;;1.10;0.57;;;0.80;99.90;;;;;;5072632;28;20515;-79
2023/03/06 05:39:52;;;;;;;0.98;0.60;;;1.30;99.90;;;;;;5089105;28;20052;-79
2023/03/06 05:42:19;;;;;;;1.23;0.70;;;0.80;99.90;;;;;;5089291;28;20518;-79
2023/03/06 05:44:46;;;;;;;1.25;0.73;;;0.70;99.90;;;;;;5072628;28;20047;-79
2023/03/06 05:47:13;;;;;;;0.82;0.65;;;1.40;99.90;;;;;;5072508;28;20044;-79
2023/03/06 05:49:40;;;;;;;1.10;0.70;;;0.80;99.90;;;;;;5089243;28;20060;-79
2023/03/06 05:52:07;;;;;;;1.33;0.77;;;0.70;99.90;;;;;;5072943;28;20036;-79
2023/03/06 05:54:35;;;;;;;1.65;0.70;;;1.20;99.90;;;;;;5072519;28;20045;-79
2023/03/06 05:57:03;;;;;;;1.35;0.73;;;0.70;99.90;;;;;;5088939;28;20134;-78
2023/03/06 05:59:31;;;;;;;3.80;0.85;;;0.60;99.90;;;;;;5072207;28;20496;-79
2023/03/06 06:01:59;;;;;;;1.50;0.80;;;1.00;99.90;;;;;;5072376;28;20101;-79
2023/03/06 06:04:26;;;;;;;2.53;0.98;;;1.10;99.90;;;;;;5072493;28;20106;-78
2023/03/06 06:06:55;;;;;;;1.27;0.60;;;0.90;99.90;;;;;;5090617;28;20051;-79
2023/03/06 06:09:22;;;;;;;1.92;1.00;;;1.10;99.90;;;;;;5092503;28;20036;-79
2023/03/06 06:11:51;;;;;;;3.15;1.13;;;0.60;99.90;;;;;;5076122;28;20036;-79
2023/03/06 06:14:18;;;;;;;2.35;1.25;;;0.60;99.90;;;;;;5092259;28;20044;-79
2023/03/06 06:16:53;;;;;;;2.28;1.08;;;0.60;99.90;;;;;;5075410;28;20046;-78
2023/03/06 06:19:21;;;;;;;0.93;0.68;;;0.60;99.90;;;;;;5108403;28;20040;-79
2023/03/06 06:21:50;;;;;;;3.90;1.33;;;0.30;99.90;;;;;;5108497;28;20496;-78
2023/03/06 06:24:20;;;;;;;1.25;0.90;;;0.60;99.90;;;;;;5091804;28;20044;-79
2023/03/06 06:26:49;;;;;;;2.15;1.10;;;0.60;99.90;;;;;;5091928;28;20040;-78
2023/03/06 06:29:16;;;;;;;8.75;0.60;;;0.60;99.90;;;;;;5088531;28;20119;-79
2023/03/06 06:31:43;;;;;;;0.98;0.63;;;1.10;99.90;;;;;;5071899;28;20127;-78
2023/03/06 06:34:10;;;;;;;3.22;0.77;;;0.60;99.90;;;;;;5088612;28;20508;-78
2023/03/06 06:36:37;;;;;;;2.13;1.05;;;0.60;99.90;;;;;;5055509;28;20852;-79
2023/03/06 06:39:05;;;;;;;3.53;0.70;;;1.30;99.90;;;;;;5072049;28;20123;-78
2023/03/06 06:41:32;;;;;;;2.47;1.17;;;0.60;99.90;;;;;;5071983;28;20044;-78
2023/03/06 06:43:59;;;;;;;1.33;0.80;;;0.60;99.90;;;;;;5071704;28;20043;-79
2023/03/06 06:46:26;;;;;;;0.98;0.80;;;0.60;99.90;;;;;;5078382;28;20036;-78
2023/03/06 06:48:53;;;;;;;1.85;1.00;;;0.50;99.90;;;;;;5072917;28;20039;-78
2023/03/06 06:51:21;;;;;;;1.90;0.95;;;0.50;99.90;;;;;;5085714;28;20037;-79
2023/03/06 06:53:51;;;;;;;1.42;0.90;;;0.50;99.90;;;;;;5092517;28;20049;-78
2023/03/06 06:56:17;;;;;;;1.60;0.90;;;0.50;99.90;;;;;;5073194;28;20051;-78
2023/03/06 06:58:44;;;;;;;1.88;0.82;;;0.80;99.90;;;;;;5077343;28;20416;-78
2023/03/06 07:01:12;;;;;;;4.97;1.40;;;0.60;99.90;;;;;;5069482;28;20393;-78
2023/03/06 07:03:39;;;;;;;2.17;1.30;;;0.50;99.90;;;;;;5088558;28;20044;-78
2023/03/06 07:06:06;;;;;;;3.15;1.50;;;1.20;99.90;;;;;;5079425;28;20077;-78
2023/03/06 07:08:34;;;;;;;3.65;1.85;;;0.50;99.90;;;;;;5089764;28;20039;-78
2023/03/06 07:11:18;;;;;;;4.10;1.75;;;1.10;99.90;;;;;;5095290;28;20035;-78
2023/03/06 07:13:48;;;;;;;4.10;2.08;;;0.60;99.90;;;;;;5083980;28;20052;-78
2023/03/06 07:16:18;;;;;;;5.68;2.85;;;0.60;99.90;;;;;;5067202;28;20059;-79
2023/03/06 07:18:48;;;;;;;13.32;2.47;;;0.70;99.90;;;;;;5108667;28;20531;-78
2023/03/06 07:21:15;;;;;;;3.85;1.75;;;0.60;99.90;;;;;;5059233;28;20040;-78
2023/03/06 07:23:41;;;;;;;4.45;1.77;;;0.70;99.90;;;;;;5075115;28;20042;-78
2023/03/06 07:26:09;;;;;;;2.75;1.27;;;0.70;99.90;;;;;;5060046;28;20040;-79
2023/03/06 07:28:35;;;;;;;4.28;1.42;;;0.70;99.90;;;;;;5107375;28;20047;-78
2023/03/06 07:31:07;;;;;;;3.28;1.52;;;0.80;99.90;;;;;;5080172;28;20412;-78
2023/03/06 07:33:34;;;;;;;2.33;1.25;;;0.70;99.90;;;;;;5088293;28;20037;-79
2023/03/06 07:36:01;;;;;;;6.45;1.88;;;0.80;99.90;;;;;;5072247;28;20135;-78
2023/03/06 07:38:27;;;;;;;2.80;1.63;;;0.80;99.90;;;;;;5063927;28;20515;-79
2023/03/06 07:40:54;;;;;;;4.57;2.10;;;0.90;99.90;;;;;;5095877;28;20041;-78
2023/03/06 07:43:21;;;;;;;1.77;1.27;;;1.40;99.90;;;;;;5086565;28;20084;-78
2023/03/06 07:45:58;;;;;;;7.10;1.50;;;1.80;99.90;;;;;;5092005;28;20109;-79
2023/03/06 07:48:26;;;;;;;7.25;1.88;;;1.60;99.90;;;;;;5095641;28;20076;-78
2023/03/06 07:51:20;;;;;;;3.15;1.50;;;1.20;99.90;;;;;;5094818;28;20451;-78
2023/03/06 07:53:48;;;;;;;3.17;1.92;;;0.80;99.90;;;;;;5106890;28;20044;-79
2023/03/06 07:56:15;;;;;;;3.92;1.65;;;0.80;99.90;;;;;;5083635;28;20083;-78
2023/03/06 07:58:44;;;;;;;4.13;1.85;;;0.80;99.90;;;;;;5074727;28;20582;-79
2023/03/06 08:01:14;;;;;;;2.38;1.10;;;0.80;99.90;;;;;;5082549;28;20036;-78
2023/03/06 08:03:41;;;;;;;5.03;1.38;;;0.80;99.90;;;;;;5085572;28;20044;-79
2023/03/06 08:06:10;;;;;;;2.50;1.55;;;1.30;99.90;;;;;;5107016;28;20036;-78
2023/03/06 08:08:39;;;;;;;4.55;1.30;;;0.80;99.90;;;;;;5094709;28;20040;-78
2023/03/06 08:11:07;;;;;;;7.53;1.30;;;1.40;99.90;;;;;;5076712;28;20189;-79
2023/03/06 08:13:35;;;;;;;3.83;1.67;;;0.80;99.90;;;;;;5074524;28;20382;-78
2023/03/06 08:16:02;;;;;;;0.90;0.80;;;0.90;99.90;;;;;;5091408;28;20086;-78
2023/03/06 08:18:29;;;;;;;1.77;0.93;;;0.90;99.90;;;;;;5077541;28;20044;-78
2023/03/06 08:21:07;;;;;;;2.25;1.15;;;0.90;99.90;;;;;;5090559;28;20048;-78
2023/03/06 08:23:35;;;;;;;1.60;0.95;;;0.90;99.90;;;;;;5097115;28;20047;-79
2023/03/06 08:26:10;;;;;;;0.90;0.60;;;1.00;99.90;;;;;;5071757;28;20047;-79
2023/03/06 08:28:37;;;;;;;3.92;1.77;;;1.00;99.90;;;;;;5093812;28;20040;-79
2023/03/06 08:31:27;;;;;;;2.22;0.70;;;1.40;99.90;;;;;;5096613;28;20036;-79
2023/03/06 08:33:55;;;;;;;1.55;0.73;;;1.10;99.90;;;;;;5077095;28;20502;-78
2023/03/06 08:36:22;;;;;;;1.67;0.80;;;1.10;99.90;;;;;;5089522;28;20187;-79
2023/03/06 08:38:49;;;;;;;1.85;0.75;;;1.70;99.90;;;;;;5084826;28;20043;-79
2023/03/06 08:41:16;;;;;;;5.18;1.17;;;1.80;99.90;;;;;;5057497;28;20036;-79
2023/03/06 08:43:43;;;;;;;2.08;1.00;;;1.50;99.90;;;;;;5073155;28;20046;-80
2023/03/06 08:46:10;;;;;;;1.05;0.70;;;1.60;99.90;;;;;;5073527;28;20040;-80
2023/03/06 08:48:38;;;;;;;2.80;1.35;;;2.10;99.90;;;;;;5073249;28;20046;-80
2023/03/06 08:51:06;;;;;;;0.95;0.68;;;1.80;99.90;;;;;;5073713;28;20086;-80
2023/03/06 08:53:33;;;;;;;6.80;1.08;;;1.80;99.90;;;;;;5090146;28;20099;-80
2023/03/06 08:56:00;;;;;;;1.40;0.60;;;2.30;99.90;;;;;;5073051;28;20087;-80
2023/03/06 08:58:27;;;;;;;1.52;0.93;;;2.80;99.90;;;;;;5056586;28;20052;-79
2023/03/06 09:00:55;;;;;;;0.88;0.65;;;2.10;99.90;;;;;;5073120;28;20109;-80
2023/03/06 09:03:24;;;;;;;1.35;0.80;;;2.10;99.90;;;;;;5056551;28;20080;-79
2023/03/06 09:05:51;;;;;;;1.42;0.65;;;2.20;99.90;;;;;;5056950;28;20040;-80
2023/03/06 09:08:18;;;;;;;2.47;0.90;;;2.20;99.90;;;;;;5055592;28;20040;-80
2023/03/06 09:10:46;;;;;;;1.85;1.10;;;2.90;99.90;;;;;;5089269;28;20048;-80
2023/03/06 09:13:13;;;;;;;1.48;0.98;;;3.00;99.90;;;;;;5056851;28;20036;-79
2023/03/06 09:15:40;;;;;;;7.00;0.73;;;2.20;99.90;;;;;;5072461;28;20051;-79
2023/03/06 09:18:07;;;;;;;2.08;0.77;;;2.30;99.90;;;;;;5056416;28;20040;-79
2023/03/06 09:20:33;;;;;;;4.47;1.30;;;2.30;99.90;;;;;;5056643;28;20036;-79
2023/03/06 09:23:00;;;;;;;2.50;1.02;;;3.20;99.90;;;;;;5055583;28;20127;-79
2023/03/06 09:25:27;;;;;;;2.80;1.05;;;2.40;99.90;;;;;;5056244;28;20041;-79
2023/03/06 09:27:53;;;;;;;1.98;1.02;;;2.70;99.90;;;;;;5055898;28;20041;-79
2023/03/06 09:30:20;;;;;;;1.88;0.82;;;2.80;99.90;;;;;;5074360;28;20032;-79
2023/03/06 09:32:47;;;;;;;1.95;1.00;;;2.90;99.90;;;;;;5084862;28;20040;-79
2023/03/06 09:35:13;;;;;;;2.45;0.93;;;3.00;99.90;;;;;;5072505;28;20033;-79
2023/03/06 09:37:40;;;;;;;1.45;0.88;;;3.40;99.90;;;;;;5099873;28;20120;-79
2023/03/06 09:40:15;;;;;;;1.20;0.80;;;3.30;99.90;;;;;;5075545;28;20519;-79
2023/03/06 09:42:42;;;;;;;5.78;0.82;;;3.40;99.90;;;;;;5073595;28;20149;-79
2023/03/06 09:45:12;;;;;;;2.20;1.17;;;3.40;99.90;;;;;;5055627;28;20127;-79
2023/03/06 09:48:09;;;;;;;2.05;0.90;;;3.60;99.90;;;;;;5096985;28;20036;-79
2023/03/06 09:51:13;;;;;;;3.00;0.50;;;3.50;99.90;;;;;;5109380;28;20130;-78
2023/03/06 09:53:52;;;;;;;2.28;0.80;;;3.60;99.90;;;;;;5085908;28;20044;-79
2023/03/06 09:56:23;;;;;;;12.80;1.10;;;3.80;99.90;;;;;;5079330;28;20045;-79
2023/03/06 09:58:54;;;;;;;2.55;0.73;;;3.90;99.90;;;;;;5085421;28;20043;-79
2023/03/06 10:01:28;;;;;;;0.68;0.38;;;4.10;99.90;;;;;;5108712;28;20491;-79
2023/03/06 10:04:03;;;;;;;0.73;0.57;;;4.10;99.90;;;;;;5091728;28;20503;-79
2023/03/06 10:06:40;;;;;;;0.77;0.50;;;4.10;99.90;;;;;;5087632;28;20036;-79
2023/03/06 10:09:38;;;;;;;4.05;0.77;;;4.10;99.90;;;;;;5093230;28;20067;-79
2023/03/06 10:12:16;;;;;;;1.00;0.60;;;4.10;99.90;;;;;;5096458;28;20087;-79
2023/03/06 10:14:52;;;;;;;0.82;0.45;;;4.10;99.90;;;;;;5086142;28;20032;-79
2023/03/06 10:17:25;;;;;;;0.30;0.30;;;4.00;99.90;;;;;;5074395;28;20382;-80
2023/03/06 10:19:51;;;;;;;0.68;0.40;;;4.00;99.90;;;;;;5089624;28;20036;-81
2023/03/06 10:22:41;;;;;;;1.88;0.93;;;4.10;99.90;;;;;;5079635;28;20554;-80
2023/03/06 10:25:28;;;;;;;0.65;0.43;;;4.10;99.90;;;;;;5074906;28;20052;-80
2023/03/06 10:28:02;;;;;;;0.45;0.40;;;4.10;99.90;;;;;;5086349;28;20747;-80
2023/03/06 10:30:55;;;;;;;9.75;0.98;;;4.30;99.90;;;;;;5099492;28;20028;-80
2023/03/06 10:33:31;;;;;;;1.23;0.50;;;4.10;99.90;;;;;;5096157;28;20044;-80
2023/03/06 10:35:58;;;;;;;6.38;0.50;;;4.10;99.90;;;;;;5071872;28;20458;-81
2023/03/06 10:38:31;;;;;;;2.10;0.88;;;4.10;99.90;;;;;;5097560;28;20040;-80
2023/03/06 10:41:12;;;;;;;1.92;0.40;;;4.20;99.90;;;;;;5101877;28;20403;-80
2023/03/06 10:43:44;;;;;;;3.35;0.45;;;4.20;99.90;;;;;;5078238;28;20039;-79
2023/03/06 10:46:24;;;;;;;5.05;0.60;;;4.30;99.90;;;;;;5080670;28;20378;-80
2023/03/06 10:48:58;;;;;;;1.10;0.73;;;4.40;99.90;;;;;;5083990;28;20102;-80
2023/03/06 10:51:26;;;;;;;3.60;0.57;;;4.40;99.90;;;;;;5078677;28;20036;-80
2023/03/06 10:53:58;;;;;;;0.45;0.40;;;4.40;99.90;;;;;;5061566;28;20523;-80
2023/03/06 10:56:35;;;;;;;4.05;0.70;;;4.40;99.90;;;;;;5086516;28;20043;-80
2023/03/06 10:59:17;;;;;;;1.08;0.40;;;4.50;99.90;;;;;;5080160;28;20097;-80
2023/03/06 11:02:22;;;;;;;2.53;0.55;;;4.50;99.90;;;;;;5079913;28;20580;-80
2023/03/06 11:04:52;;;;;;;0.35;0.30;;;4.60;99.90;;;;;;5075043;28;20044;-79
2023/03/06 11:07:23;;;;;;;0.35;0.20;;;5.00;99.90;;;;;;5079341;28;20033;-79
2023/03/06 11:09:56;;;;;;;0.13;0.13;;;5.00;99.90;;;;;;5074036;28;20178;-79
2023/03/06 11:12:37;;;;;;;0.90;0.40;;;4.90;99.90;;;;;;5078125;28;20120;-79
2023/03/06 11:15:22;;;;;;;0.55;0.30;;;5.20;99.90;;;;;;5083383;28;20035;-79
2023/03/06 11:17:59;;;;;;;0.20;0.20;;;5.10;99.90;;;;;;5098455;28;20041;-79
2023/03/06 11:20:33;;;;;;;0.80;0.43;;;5.00;99.90;;;;;;5096512;28;20047;-79
2023/03/06 11:23:05;;;;;;;0.40;0.28;;;4.90;99.90;;;;;;5076894;28;20481;-79
2023/03/06 11:25:41;;;;;;;3.72;0.43;;;5.00;99.90;;;;;;5091404;28;20458;-79
2023/03/06 11:28:24;;;;;;;1.30;0.30;;;4.70;99.90;;;;;;5087551;28;20043;-79
2023/03/06 11:31:02;;;;;;;0.52;0.38;;;4.80;99.90;;;;;;5072948;28;20557;-79
2023/03/06 11:33:51;;;;;;;0.68;0.50;;;4.90;99.90;;;;;;5102902;28;20037;-79
2023/03/06 11:36:25;;;;;;;0.22;0.22;;;5.10;99.90;;;;;;5080080;28;20044;-79
2023/03/06 11:38:53;;;;;;;0.20;0.20;;;5.10;99.90;;;;;;5080249;28;20044;-79
2023/03/06 11:41:58;;;;;;;0.30;0.30;;;5.20;99.90;;;;;;5072067;28;20067;-79
2023/03/06 11:44:40;;;;;;;5.13;0.63;;;5.20;99.90;;;;;;5089230;28;20039;-79
2023/03/06 11:47:15;;;;;;;0.25;0.22;;;5.10;99.90;;;;;;5104234;28;20062;-79
2023/03/06 11:49:51;;;;;;;0.17;0.17;;;5.00;99.90;;;;;;5106777;28;20036;-79
2023/03/06 11:52:24;;;;;;;0.30;0.20;;;4.90;99.90;;;;;;5074102;28;20040;-79
2023/03/06 11:54:55;;;;;;;0.20;0.20;;;4.90;99.90;;;;;;5075851;28;20052;-79
2023/03/06 11:57:34;;;;;;;0.75;0.28;;;4.90;99.90;;;;;;5074229;28;20405;-79
2023/03/06 12:00:27;;;;;;;0.32;0.20;;;5.00;99.90;;;;;;5082028;28;20035;-79
2023/03/06 12:03:28;;;;;;;0.15;0.13;;;5.00;99.90;;;;;;5083437;28;20393;-79
2023/03/06 12:06:16;;;;;;;2.28;0.77;;;5.00;99.90;;;;;;5084854;28;20492;-79
2023/03/06 12:09:03;;;;;;;1.35;0.40;;;5.10;99.90;;;;;;5079610;28;20048;-79
2023/03/06 12:11:52;;;;;;;0.50;0.35;;;5.00;99.90;;;;;;5085471;28;20473;-79
2023/03/06 12:14:29;;;;;;;0.55;0.30;;;5.10;99.90;;;;;;5096893;28;20595;-79
2023/03/06 12:17:11;;;;;;;0.40;0.30;;;5.10;99.90;;;;;;5086384;28;20043;-79
2023/03/06 12:19:56;;;;;;;0.30;0.30;;;5.10;99.90;;;;;;5074914;28;20131;-79
2023/03/06 12:22:32;;;;;;;0.30;0.30;;;5.10;99.90;;;;;;5113271;28;20524;-79
2023/03/06 12:25:08;;;;;;;0.70;0.40;;;5.10;99.90;;;;;;5107381;28;20044;-79
2023/03/06 12:27:34;;;;;;;;;;;5.20;99.90;;;;;;5107681;28;20045;-79
2023/03/06 12:30:55;;;;;;;2.20;0.50;;;5.20;99.90;;;;;;5089808;28;19926;-79
2023/03/06 12:33:27;;;;;;;0.55;0.30;;;5.10;99.90;;;;;;4970507;29;20071;-79
2023/03/06 12:36:24;;;;;;;0.85;0.47;;;5.20;99.90;;;;;;5065107;28;20493;-79
2023/03/06 12:39:22;;;;;;;0.22;0.22;;;5.30;99.90;;;;;;5087011;28;20047;-79
2023/03/06 12:42:07;;;;;;;0.40;0.30;;;5.30;99.90;;;;;;5080491;28;20492;-79
2023/03/06 12:45:02;;;;;;;1.98;0.47;;;5.40;99.90;;;;;;5072237;28;20500;-79
2023/03/06 12:47:34;;;;;;;0.40;0.40;;;5.30;99.90;;;;;;5104284;28;20041;-79
2023/03/06 12:50:17;;;;;;;1.15;0.50;;;5.30;99.90;;;;;;5090379;28;20044;-79
2023/03/06 12:52:46;;;;;;;0.57;0.38;;;5.30;99.90;;;;;;5076508;28;20047;-79
2023/03/06 12:55:16;;;;;;;0.30;0.30;;;5.20;99.90;;;;;;5074005;28;20127;-79
2023/03/06 12:57:46;;;;;;;0.68;0.25;;;5.30;99.90;;;;;;5076879;28;20048;-79
2023/03/06 13:00:32;;;;;;;0.40;0.25;;;5.40;99.90;;;;;;5096934;28;20044;-79
2023/03/06 13:03:25;;;;;;;0.20;0.20;;;5.40;99.90;;;;;;5084757;28;20170;-78
2023/03/06 13:06:09;;;;;;;0.35;0.35;;;5.40;99.90;;;;;;5088606;28;20415;-79
2023/03/06 13:08:55;;;;;;;0.35;0.30;;;5.40;99.90;;;;;;5073359;28;20045;-79
2023/03/06 13:11:34;;;;;;;0.32;0.32;;;5.30;99.90;;;;;;5090003;28;20036;-79
2023/03/06 13:14:23;;;;;;;0.20;0.20;;;5.40;99.90;;;;;;5077837;28;20036;-79
2023/03/06 13:16:50;;;;;;;0.80;0.63;;;5.40;99.90;;;;;;5071030;28;20040;-78
2023/03/06 13:19:23;;;;;;;0.95;0.68;;;5.50;99.90;;;;;;5075021;28;20043;-79